Time;durP1;ratioP1;P1;durP2;ratioP2;P2;SDS_P1;SDS_P2;PMS_P1;PMS_P2;Temp;Humidity;BMP_temperature;BMP_pressure;BME280_temperature;BME280_humidity;BME280_pressure;Samples;Min_cycle;Max_cycle;Signal;HPM_P1;HPM_P2
2022/04/24 00:01:42;;;;;;;1.27;0.95;;;;;;;9.46;80.53;94204.13;5031941;28;20204;-74
2022/04/24 00:04:10;;;;;;;0.85;0.63;;;;;;;9.27;81.63;94197.31;5031541;28;20235;-74
2022/04/24 00:06:39;;;;;;;0.40;0.40;;;;;;;9.22;82.00;94200.19;5032119;28;20208;-75
2022/04/24 00:09:07;;;;;;;0.60;0.60;;;;;;;9.15;82.11;94199.94;5031224;28;20576;-75
2022/04/24 00:11:34;;;;;;;0.57;0.57;;;;;;;9.14;82.43;94203.75;5031805;28;20640;-74
2022/04/24 00:14:07;;;;;;;1.52;1.23;;;;;;;9.18;82.39;94199.25;5031797;28;20266;-75
2022/04/24 00:16:34;;;;;;;2.13;1.20;;;;;;;9.07;82.62;94198.06;5031541;28;20656;-74
2022/04/24 00:19:01;;;;;;;1.63;0.60;;;;;;;9.08;82.68;94198.84;5031964;28;20212;-75
2022/04/24 00:21:28;;;;;;;1.27;0.65;;;;;;;9.08;82.79;94205.06;5046369;28;20204;-74
2022/04/24 00:23:55;;;;;;;0.63;0.63;;;;;;;9.02;82.75;94195.53;5051179;28;20223;-74
2022/04/24 00:26:23;;;;;;;0.95;0.70;;;;;;;9.12;82.51;94206.00;5038022;28;20208;-76
2022/04/24 00:28:50;;;;;;;0.80;0.80;;;;;;;9.11;82.39;94209.03;5051305;28;20215;-74
2022/04/24 00:31:17;;;;;;;2.38;0.90;;;;;;;9.08;81.99;94210.47;5050864;28;20204;-76
2022/04/24 00:33:44;;;;;;;3.60;1.35;;;;;;;9.00;81.98;94200.50;5051279;28;20200;-76
2022/04/24 00:36:11;;;;;;;1.50;0.95;;;;;;;8.96;81.94;94202.28;5051532;28;20207;-76
2022/04/24 00:38:38;;;;;;;24.35;1.58;;;;;;;8.94;82.18;94209.13;5051430;28;20206;-75
2022/04/24 00:41:05;;;;;;;1.88;0.98;;;;;;;8.87;82.49;94209.66;5050289;28;20644;-74
2022/04/24 00:43:34;;;;;;;0.80;0.77;;;;;;;8.77;83.64;94207.31;5041449;28;20638;-75
2022/04/24 00:46:12;;;;;;;0.73;0.70;;;;;;;8.72;84.37;94204.81;5034085;28;20207;-75
2022/04/24 00:48:40;;;;;;;7.28;0.73;;;;;;;8.72;84.58;94207.50;5051169;28;20230;-75
2022/04/24 00:51:07;;;;;;;0.30;0.30;;;;;;;8.74;84.54;94205.28;5051078;28;20325;-76
2022/04/24 00:53:34;;;;;;;0.60;0.40;;;;;;;8.74;84.37;94199.88;5050303;28;20211;-76
2022/04/24 00:56:02;;;;;;;1.52;0.73;;;;;;;8.80;84.19;94210.16;5051090;28;20211;-76
2022/04/24 00:58:29;;;;;;;1.17;0.63;;;;;;;8.86;83.89;94208.06;5050544;28;20598;-75
2022/04/24 01:00:58;;;;;;;0.52;0.52;;;;;;;8.82;83.87;94207.91;5031775;28;20597;-75
2022/04/24 01:03:25;;;;;;;3.08;0.90;;;;;;;8.78;83.83;94208.88;5029664;28;20631;-75
2022/04/24 01:05:52;;;;;;;0.45;0.45;;;;;;;8.63;83.78;94209.44;5030470;28;20212;-75
2022/04/24 01:08:19;;;;;;;0.82;0.82;;;;;;;8.60;84.05;94215.50;5030224;28;20204;-74
2022/04/24 01:10:45;;;;;;;1.90;1.15;;;;;;;8.51;84.59;94218.22;5050702;28;20206;-76
2022/04/24 01:13:12;;;;;;;0.43;0.40;;;;;;;8.56;84.60;94220.75;5050531;28;20211;-75
2022/04/24 01:15:40;;;;;;;0.70;0.70;;;;;;;8.61;84.61;94217.09;5043865;28;20212;-74
2022/04/24 01:18:09;;;;;;;1.23;0.75;;;;;;;8.58;84.55;94231.25;5030084;28;20199;-74
2022/04/24 01:20:38;;;;;;;1.77;1.05;;;;;;;8.50;84.59;94216.66;5030053;28;20263;-74
2022/04/24 01:23:05;;;;;;;0.60;0.60;;;;;;;8.49;84.40;94226.66;5030469;28;20207;-76
2022/04/24 01:25:32;;;;;;;1.88;1.00;;;;;;;8.39;84.62;94227.00;5040027;28;20843;-76
2022/04/24 01:27:58;;;;;;;0.95;0.70;;;;;;;8.46;84.59;94234.63;5031480;28;20611;-74
2022/04/24 01:30:25;;;;;;;1.30;0.98;;;;;;;8.46;84.78;94232.72;5050261;28;20226;-76
2022/04/24 01:32:53;;;;;;;1.05;1.02;;;;;;;8.43;84.59;94233.34;5050092;28;20207;-75
2022/04/24 01:35:19;;;;;;;8.20;0.65;;;;;;;8.46;84.48;94237.31;5050377;28;20273;-74
2022/04/24 01:37:48;;;;;;;2.22;1.45;;;;;;;8.36;84.85;94234.97;5050354;28;20311;-74
2022/04/24 01:40:15;;;;;;;2.42;0.93;;;;;;;8.34;85.06;94239.88;5050311;28;20211;-74
2022/04/24 01:42:42;;;;;;;0.75;0.63;;;;;;;8.24;85.38;94230.22;5050103;28;20244;-74
2022/04/24 01:45:09;;;;;;;1.27;0.77;;;;;;;8.32;85.17;94242.94;5050082;28;20269;-74
2022/04/24 01:47:36;;;;;;;3.80;1.15;;;;;;;8.31;85.30;94246.72;5048692;28;20203;-75
2022/04/24 01:50:03;;;;;;;1.15;0.85;;;;;;;8.30;85.24;94245.13;5030234;28;20667;-74
2022/04/24 01:52:30;;;;;;;0.73;0.50;;;;;;;8.30;85.41;94239.72;5030218;28;20211;-75
2022/04/24 01:54:58;;;;;;;1.08;0.60;;;;;;;8.36;85.44;94243.84;5030114;28;20374;-75
2022/04/24 01:57:25;;;;;;;0.60;0.60;;;;;;;8.34;85.58;94246.06;5030617;28;20208;-74
2022/04/24 01:59:52;;;;;;;1.20;1.13;;;;;;;8.37;85.59;94250.81;5033163;28;20212;-75
2022/04/24 02:02:18;;;;;;;1.38;0.75;;;;;;;8.33;85.68;94249.91;5033835;28;20208;-75
2022/04/24 02:04:45;;;;;;;0.85;0.85;;;;;;;8.28;85.79;94239.25;5033901;28;20240;-75
2022/04/24 02:07:13;;;;;;;0.93;0.93;;;;;;;8.27;85.49;94256.56;5034190;28;20233;-74
2022/04/24 02:09:40;;;;;;;2.97;0.73;;;;;;;8.32;85.76;94259.13;5033804;28;20742;-75
2022/04/24 02:12:09;;;;;;;0.40;0.40;;;;;;;8.35;85.53;94252.25;5033684;28;20668;-76
2022/04/24 02:14:37;;;;;;;1.73;0.70;;;;;;;8.42;85.29;94241.78;5033857;28;20311;-75
2022/04/24 02:17:05;;;;;;;1.48;1.02;;;;;;;8.36;85.02;94251.94;5033999;28;20737;-76
2022/04/24 02:19:32;;;;;;;1.27;1.17;;;;;;;8.39;84.80;94254.00;5034065;28;20215;-75
2022/04/24 02:21:59;;;;;;;1.17;0.80;;;;;;;8.35;85.07;94252.25;5033932;28;20208;-75
2022/04/24 02:24:26;;;;;;;0.95;0.85;;;;;;;8.31;85.11;94254.00;5042093;28;20241;-76
2022/04/24 02:26:53;;;;;;;2.30;1.05;;;;;;;8.26;85.34;94259.56;5034955;28;20212;-76
2022/04/24 02:29:21;;;;;;;1.55;1.08;;;;;;;8.23;85.23;94255.59;5033631;28;20204;-76
2022/04/24 02:31:48;;;;;;;1.52;0.75;;;;;;;8.29;84.29;94253.53;5052381;28;20206;-75
2022/04/24 02:34:15;;;;;;;1.27;1.13;;;;;;;8.21;84.90;94257.81;5054018;28;20312;-75
2022/04/24 02:36:42;;;;;;;0.45;0.45;;;;;;;8.07;85.33;94246.44;5033797;28;20262;-76
2022/04/24 02:39:09;;;;;;;1.38;0.75;;;;;;;8.02;85.69;94249.31;5033079;28;20659;-76
2022/04/24 02:41:36;;;;;;;2.80;1.65;;;;;;;8.09;85.50;94246.91;5033665;28;20224;-76
2022/04/24 02:44:03;;;;;;;2.88;1.27;;;;;;;8.12;84.71;94248.97;5033062;28;20738;-76
2022/04/24 02:46:32;;;;;;;0.45;0.45;;;;;;;7.94;84.60;94258.19;5033547;28;20262;-75
2022/04/24 02:48:59;;;;;;;3.72;1.65;;;;;;;7.89;85.27;94258.38;5032982;28;20212;-75
2022/04/24 02:51:25;;;;;;;2.00;1.13;;;;;;;7.88;85.56;94259.50;5033223;28;20610;-76
2022/04/24 02:53:52;;;;;;;2.10;1.05;;;;;;;7.74;86.14;94255.06;5046944;28;20265;-75
2022/04/24 02:56:19;;;;;;;1.40;1.05;;;;;;;7.77;86.39;94254.44;5053226;28;20211;-76
2022/04/24 02:58:48;;;;;;;0.32;0.32;;;;;;;7.78;86.41;94253.31;5053396;28;20203;-76
2022/04/24 03:01:15;;;;;;;1.08;0.98;;;;;;;7.82;86.08;94261.53;5045701;28;20250;-76
2022/04/24 03:03:45;;;;;;;0.60;0.60;;;;;;;7.74;86.10;94260.47;5032584;28;20236;-76
2022/04/24 03:06:12;;;;;;;2.65;1.55;;;;;;;7.81;85.91;94268.03;5033120;28;20208;-74
2022/04/24 03:08:40;;;;;;;3.92;1.35;;;;;;;7.71;85.46;94269.16;5031755;28;20240;-75
2022/04/24 03:11:07;;;;;;;0.88;0.82;;;;;;;7.82;85.46;94270.44;5030951;28;20209;-75
2022/04/24 03:13:34;;;;;;;1.40;1.23;;;;;;;7.77;85.47;94277.91;5032945;28;20289;-76
2022/04/24 03:16:01;;;;;;;1.92;1.27;;;;;;;7.78;85.63;94276.78;5032953;28;20230;-74
2022/04/24 03:18:28;;;;;;;1.60;1.23;;;;;;;7.87;85.63;94284.88;5032454;28;20687;-75
2022/04/24 03:20:56;;;;;;;3.92;1.10;;;;;;;7.93;85.61;94278.19;5032897;28;20565;-75
2022/04/24 03:23:23;;;;;;;1.08;0.80;;;;;;;7.91;85.71;94285.81;5045514;28;20231;-74
2022/04/24 03:25:50;;;;;;;1.08;0.63;;;;;;;7.90;85.14;94284.25;5040841;28;20687;-75
2022/04/24 03:28:17;;;;;;;0.85;0.85;;;;;;;7.97;84.87;94295.31;5032097;28;20235;-74
2022/04/24 03:30:44;;;;;;;4.40;1.52;;;;;;;8.10;84.53;94286.25;5032356;28;20605;-74
2022/04/24 03:33:12;;;;;;;0.63;0.63;;;;;;;7.71;86.38;94298.81;5032048;28;20687;-74
2022/04/24 03:35:39;;;;;;;0.82;0.70;;;;;;;7.64;87.31;94295.81;5032306;28;20212;-74
2022/04/24 03:38:07;;;;;;;0.80;0.60;;;;;;;7.63;87.60;94302.31;5031092;28;20204;-74
2022/04/24 03:40:34;;;;;;;0.57;0.55;;;;;;;7.73;87.63;94307.41;5031960;28;20211;-75
2022/04/24 03:43:01;;;;;;;1.00;0.90;;;;;;;7.90;87.06;94300.41;5031565;28;20237;-75
2022/04/24 03:45:28;;;;;;;0.50;0.50;;;;;;;8.24;86.95;94294.97;5044070;28;20254;-75
2022/04/24 03:47:55;;;;;;;0.95;0.80;;;;;;;8.84;83.01;94296.72;5052018;28;20203;-75
2022/04/24 03:50:23;;;;;;;1.08;1.08;;;;;;;9.04;82.32;94295.97;5051452;28;20207;-74
2022/04/24 03:52:50;;;;;;;3.65;1.02;;;;;;;9.63;80.28;94288.63;5051668;28;20621;-78
2022/04/24 03:55:18;;;;;;;1.30;0.65;;;;;;;10.12;78.52;94285.34;5051922;28;20586;-74
2022/04/24 03:57:45;;;;;;;1.40;1.30;;;;;;;10.73;77.33;94288.25;5052208;28;20211;-75
2022/04/24 04:00:13;;;;;;;0.73;0.73;;;;;;;11.78;73.33;94281.91;5052036;28;20215;-75
2022/04/24 04:02:44;;;;;;;1.63;1.48;;;;;;;13.06;69.56;94271.75;5038852;28;20393;-76
2022/04/24 04:05:11;;;;;;;2.63;1.83;;;;;;;14.10;67.30;94264.75;5025714;28;20232;-75
2022/04/24 04:07:39;;;;;;;6.82;3.35;;;;;;;15.06;62.67;94266.56;5032180;28;20205;-76
2022/04/24 04:10:07;;;;;;;2.58;1.55;;;;;;;15.49;60.61;94255.16;5031605;28;20270;-76
2022/04/24 04:12:36;;;;;;;3.60;1.70;;;;;;;16.47;58.91;94259.59;5031354;28;20295;-76
2022/04/24 04:15:03;;;;;;;1.85;1.60;;;;;;;17.03;57.83;94245.72;5031887;28;20204;-76
2022/04/24 04:17:30;;;;;;;3.63;2.10;;;;;;;16.31;59.30;94251.59;5032095;28;20222;-76
2022/04/24 04:19:57;;;;;;;4.82;2.97;;;;;;;17.57;55.03;94249.66;5031840;28;20204;-76
2022/04/24 04:22:24;;;;;;;8.57;4.10;;;;;;;18.45;52.73;94256.81;5031420;28;20231;-76
2022/04/24 04:24:51;;;;;;;6.38;3.85;;;;;;;18.80;49.77;94239.69;5040727;28;20224;-77
2022/04/24 04:27:18;;;;;;;6.32;3.53;;;;;;;19.94;48.57;94240.50;5031866;28;20209;-76
2022/04/24 04:29:46;;;;;;;4.53;3.03;;;;;;;19.90;47.53;94252.69;5047915;28;20204;-77
2022/04/24 04:32:13;;;;;;;6.07;3.40;;;;;;;20.06;46.94;94244.78;5051001;28;20210;-76
2022/04/24 04:34:40;;;;;;;5.68;3.33;;;;;;;19.78;47.30;94251.13;5051496;28;20215;-76
2022/04/24 04:37:07;;;;;;;7.60;3.35;;;;;;;19.74;47.60;94253.88;5040597;28;20259;-75
2022/04/24 04:39:34;;;;;;;6.32;3.78;;;;;;;19.45;47.50;94257.78;5031287;28;20254;-77
2022/04/24 04:42:01;;;;;;;7.80;3.78;;;;;;;19.33;48.87;94266.44;5030485;28;20735;-76
2022/04/24 04:44:28;;;;;;;7.43;4.20;;;;;;;20.30;45.57;94260.44;5030771;28;20255;-76
2022/04/24 04:46:56;;;;;;;8.43;4.47;;;;;;;19.14;48.08;94260.13;5030992;28;20610;-75
2022/04/24 04:49:23;;;;;;;6.55;3.90;;;;;;;17.22;52.74;94276.78;5030956;28;20216;-74
2022/04/24 04:51:52;;;;;;;6.05;3.75;;;;;;;17.77;51.96;94270.16;5030891;28;20212;-75
2022/04/24 04:54:19;;;;;;;6.70;3.65;;;;;;;16.99;53.66;94274.22;5030922;28;20304;-75
2022/04/24 04:56:46;;;;;;;6.18;3.42;;;;;;;18.03;51.62;94280.13;5030932;28;20219;-75
2022/04/24 04:59:14;;;;;;;7.38;4.10;;;;;;;19.07;49.19;94281.31;5030888;28;20651;-78
2022/04/24 05:01:40;;;;;;;6.28;4.03;;;;;;;19.39;48.95;94281.34;5031027;28;20208;-77
2022/04/24 05:04:08;;;;;;;6.72;3.65;;;;;;;20.88;45.80;94281.03;5030971;28;20204;-76
2022/04/24 05:06:37;;;;;;;7.60;3.97;;;;;;;21.00;44.92;94282.56;5030261;28;20216;-77
2022/04/24 05:09:04;;;;;;;8.00;3.97;;;;;;;21.62;43.55;94274.25;5031022;28;20304;-77
2022/04/24 05:11:31;;;;;;;6.03;3.53;;;;;;;22.05;42.66;94268.38;5030629;28;20227;-77
2022/04/24 05:13:58;;;;;;;4.00;3.30;;;;;;;21.75;42.97;94278.06;5030433;28;20628;-76
2022/04/24 05:16:25;;;;;;;5.63;3.80;;;;;;;22.68;40.79;94264.13;5030924;28;20205;-78
2022/04/24 05:18:52;;;;;;;6.47;3.53;;;;;;;23.60;39.89;94270.38;5017782;28;20204;-78
2022/04/24 05:21:20;;;;;;;7.22;3.78;;;;;;;24.23;38.30;94273.25;5030603;28;20828;-78
2022/04/24 05:23:49;;;;;;;5.75;3.90;;;;;;;23.80;38.24;94273.19;5033221;28;20195;-78
2022/04/24 05:26:16;;;;;;;6.25;4.15;;;;;;;23.50;39.05;94272.09;5036378;28;20247;-78
2022/04/24 05:28:43;;;;;;;8.10;4.22;;;;;;;24.17;37.32;94274.94;5030918;28;20622;-77
2022/04/24 05:31:10;;;;;;;7.78;4.20;;;;;;;25.23;36.10;94267.28;5030818;28;20211;-78
2022/04/24 05:33:37;;;;;;;6.55;3.55;;;;;;;24.12;37.09;94276.19;5031382;28;20204;-77
2022/04/24 05:36:05;;;;;;;5.68;3.47;;;;;;;24.85;36.64;94260.56;5034609;28;20208;-78
2022/04/24 05:38:33;;;;;;;6.47;3.72;;;;;;;25.31;34.90;94265.13;5034678;28;20215;-78
2022/04/24 05:41:00;;;;;;;5.05;3.30;;;;;;;25.09;35.58;94268.38;5034469;28;20206;-78
2022/04/24 05:43:27;;;;;;;4.30;3.05;;;;;;;25.19;35.20;94255.47;5033854;28;20240;-78
2022/04/24 05:45:54;;;;;;;4.60;2.63;;;;;;;26.28;33.31;94256.81;5049577;28;20235;-78
2022/04/24 05:48:22;;;;;;;5.38;2.50;;;;;;;24.06;36.48;94262.06;5054000;28;20214;-75
2022/04/24 05:50:49;;;;;;;3.90;2.70;;;;;;;23.20;38.07;94264.63;5054556;28;20211;-80
2022/04/24 05:53:16;;;;;;;4.63;2.50;;;;;;;23.21;38.38;94271.72;5045260;28;20208;-80
2022/04/24 05:55:44;;;;;;;3.88;2.45;;;;;;;23.97;37.24;94261.81;5034071;28;20212;-80
2022/04/24 05:58:11;;;;;;;3.75;2.33;;;;;;;24.64;36.23;94264.56;5043550;28;20208;-78
2022/04/24 06:00:38;;;;;;;4.22;1.98;;;;;;;23.81;37.10;94270.00;5053755;28;20207;-77
2022/04/24 06:03:06;;;;;;;2.88;1.98;;;;;;;23.77;37.93;94261.00;5033524;28;20197;-80
2022/04/24 06:05:33;;;;;;;5.13;2.17;;;;;;;24.25;36.42;94259.78;5031250;28;20239;-80
2022/04/24 06:08:00;;;;;;;3.63;1.95;;;;;;;24.79;36.24;94249.97;5034270;28;20203;-79
2022/04/24 06:10:27;;;;;;;4.93;2.17;;;;;;;24.82;35.62;94255.88;5033307;28;20262;-79
2022/04/24 06:12:57;;;;;;;3.80;2.13;;;;;;;23.98;36.72;94252.31;5034509;28;20208;-76
2022/04/24 06:15:26;;;;;;;2.40;1.73;;;;;;;23.42;37.86;94254.03;5035373;28;20223;-77
2022/04/24 06:17:54;;;;;;;2.53;1.90;;;;;;;23.87;37.50;94245.41;5034624;28;20228;-79
2022/04/24 06:20:22;;;;;;;1.88;1.67;;;;;;;23.09;39.56;94258.47;5034325;28;20204;-81
2022/04/24 06:22:51;;;;;;;3.70;2.40;;;;;;;23.02;39.45;94258.56;5033882;28;20212;-79
2022/04/24 06:25:20;;;;;;;2.95;1.98;;;;;;;23.82;38.17;94254.19;5047057;28;20668;-78
2022/04/24 06:27:48;;;;;;;3.05;2.30;;;;;;;24.60;36.34;94248.00;5033917;28;20212;-78
2022/04/24 06:30:18;;;;;;;4.10;2.30;;;;;;;23.90;37.87;94250.91;5047462;28;20215;-79
2022/04/24 06:32:46;;;;;;;3.58;1.70;;;;;;;25.20;35.59;94248.72;5033774;28;20204;-78
2022/04/24 06:35:14;;;;;;;3.47;1.58;;;;;;;25.13;35.11;94246.13;5033898;28;20231;-81
2022/04/24 06:37:42;;;;;;;3.33;1.92;;;;;;;23.94;37.25;94240.53;5048284;28;20211;-77
2022/04/24 06:40:12;;;;;;;2.60;1.73;;;;;;;23.79;37.49;94250.28;5053467;28;20207;-81
2022/04/24 06:42:49;;;;;;;3.92;2.10;;;;;;;24.97;35.77;94238.56;5038168;28;20293;-78
2022/04/24 06:45:17;;;;;;;2.78;1.80;;;;;;;26.05;34.12;94243.91;5032652;28;20259;-78
2022/04/24 06:47:45;;;;;;;5.47;2.22;;;;;;;25.56;34.48;94250.69;5033484;28;20213;-80
2022/04/24 06:50:12;;;;;;;3.10;1.80;;;;;;;25.02;35.38;94256.66;5033070;28;20703;-78
2022/04/24 06:52:39;;;;;;;3.97;1.70;;;;;;;26.20;33.83;94245.09;5051288;28;20208;-79
2022/04/24 06:55:07;;;;;;;3.90;2.00;;;;;;;24.66;35.98;94251.84;5041787;28;20563;-81
2022/04/24 06:57:34;;;;;;;4.90;1.75;;;;;;;24.47;37.07;94249.84;5033104;28;20208;-79
2022/04/24 07:00:01;;;;;;;5.40;2.00;;;;;;;25.09;35.17;94242.66;5033179;28;20209;-78
2022/04/24 07:02:29;;;;;;;3.50;1.80;;;;;;;25.72;34.28;94236.81;5033048;28;20567;-77
2022/04/24 07:04:56;;;;;;;3.38;1.63;;;;;;;26.63;32.71;94221.75;5032738;28;20204;-77
2022/04/24 07:07:23;;;;;;;2.60;1.70;;;;;;;27.17;32.25;94218.97;5033326;28;20208;-77
2022/04/24 07:09:50;;;;;;;5.38;1.90;;;;;;;25.92;33.65;94222.84;5032941;28;20635;-78
2022/04/24 07:12:16;;;;;;;4.05;1.63;;;;;;;25.76;33.82;94223.66;5032811;28;20208;-76
2022/04/24 07:14:43;;;;;;;2.75;1.90;;;;;;;26.82;32.89;94217.97;5033179;28;20223;-77
2022/04/24 07:17:10;;;;;;;2.88;1.60;;;;;;;27.69;31.60;94208.59;5032547;28;20651;-78
2022/04/24 07:19:39;;;;;;;4.68;1.55;;;;;;;26.66;32.72;94220.84;5045919;28;20203;-78
2022/04/24 07:22:06;;;;;;;3.03;1.80;;;;;;;26.08;33.20;94214.50;5046514;28;20208;-78
2022/04/24 07:24:33;;;;;;;3.40;1.73;;;;;;;25.71;33.97;94219.41;5041463;28;20207;-78
2022/04/24 07:26:59;;;;;;;3.50;1.60;;;;;;;23.85;36.76;94232.00;5019556;28;20232;-80
2022/04/24 07:29:26;;;;;;;6.25;1.65;;;;;;;24.09;36.63;94208.63;5032655;28;20200;-78
2022/04/24 07:31:54;;;;;;;4.13;1.67;;;;;;;24.84;35.48;94207.16;5032436;28;20208;-80
2022/04/24 07:34:21;;;;;;;5.57;1.85;;;;;;;23.09;38.18;94207.97;5032758;28;20295;-81
2022/04/24 07:36:49;;;;;;;4.18;2.10;;;;;;;24.65;36.20;94205.97;5032964;28;20204;-78
2022/04/24 07:39:16;;;;;;;6.78;1.73;;;;;;;23.67;37.07;94209.41;5045558;28;20207;-79
2022/04/24 07:41:43;;;;;;;3.53;1.50;;;;;;;23.12;37.88;94213.41;5032099;28;20224;-79
2022/04/24 07:44:10;;;;;;;3.65;1.60;;;;;;;24.34;36.07;94212.91;5031648;28;20672;-77
2022/04/24 07:46:36;;;;;;;2.13;1.52;;;;;;;22.73;38.33;94221.44;5032117;28;20236;-79
2022/04/24 07:49:03;;;;;;;1.83;1.17;;;;;;;22.90;38.33;94217.69;5031985;28;20544;-79
2022/04/24 07:51:31;;;;;;;3.22;1.40;;;;;;;23.69;37.17;94212.53;5031967;28;20208;-80
2022/04/24 07:53:59;;;;;;;1.80;1.30;;;;;;;23.24;37.81;94210.06;5031420;28;20579;-77
2022/04/24 07:56:26;;;;;;;2.88;1.30;;;;;;;22.39;39.16;94214.00;5031528;28;20710;-79
2022/04/24 07:58:53;;;;;;;1.55;1.23;;;;;;;23.19;37.77;94205.03;5032016;28;20243;-79
2022/04/24 08:01:20;;;;;;;4.05;1.55;;;;;;;22.91;38.32;94208.22;5032169;28;20200;-80
2022/04/24 08:03:46;;;;;;;4.63;1.48;;;;;;;22.63;38.83;94204.63;5031492;28;20211;-78
2022/04/24 08:06:15;;;;;;;3.03;1.63;;;;;;;22.43;39.58;94200.91;5032246;28;20243;-81
2022/04/24 08:08:42;;;;;;;3.13;1.55;;;;;;;22.92;38.14;94198.72;5031821;28;20224;-77
2022/04/24 08:11:10;;;;;;;2.80;1.30;;;;;;;22.88;38.14;94200.75;5032041;28;20262;-78
2022/04/24 08:13:37;;;;;;;3.42;1.77;;;;;;;23.38;37.40;94190.47;5031038;28;20204;-80
2022/04/24 08:16:05;;;;;;;3.05;1.58;;;;;;;22.44;39.56;94185.91;5031947;28;20334;-75
2022/04/24 08:18:32;;;;;;;2.55;1.27;;;;;;;22.04;40.15;94184.06;5048591;28;20573;-79
2022/04/24 08:20:58;;;;;;;4.20;1.73;;;;;;;21.43;41.43;94183.88;5051633;28;20203;-79
2022/04/24 08:23:26;;;;;;;2.03;1.30;;;;;;;21.84;41.37;94184.66;5051539;28;20203;-81
2022/04/24 08:25:53;;;;;;;2.30;1.30;;;;;;;21.74;41.39;94182.75;5023077;28;20282;-78
2022/04/24 08:28:21;;;;;;;4.18;1.95;;;;;;;20.96;42.14;94177.91;5031614;28;20212;-77
2022/04/24 08:30:48;;;;;;;6.18;1.45;;;;;;;20.78;43.57;94180.00;5030947;28;20205;-83
2022/04/24 08:33:17;;;;;;;4.20;1.20;;;;;;;20.90;42.30;94179.53;5031173;28;20239;-79
2022/04/24 08:35:45;;;;;;;1.70;1.38;;;;;;;20.97;42.69;94173.97;5031532;28;20219;-78
2022/04/24 08:38:12;;;;;;;3.42;1.20;;;;;;;21.39;41.56;94172.09;5031617;28;20586;-81
2022/04/24 08:40:39;;;;;;;4.07;1.33;;;;;;;21.89;40.36;94162.13;5031401;28;20211;-81
2022/04/24 08:43:06;;;;;;;3.15;1.55;;;;;;;22.02;39.90;94164.38;5030942;28;20251;-78
2022/04/24 08:45:35;;;;;;;3.80;1.70;;;;;;;21.42;41.35;94166.56;5030628;28;20703;-78
2022/04/24 08:48:04;;;;;;;3.42;1.52;;;;;;;21.57;41.21;94164.44;5031181;28;20239;-75
2022/04/24 08:50:33;;;;;;;5.07;1.85;;;;;;;21.36;41.67;94161.88;5030395;28;20205;-76
2022/04/24 08:53:00;;;;;;;2.30;1.30;;;;;;;20.97;42.31;94162.97;5031165;28;20212;-78
2022/04/24 08:55:29;;;;;;;2.58;1.48;;;;;;;21.49;42.98;94160.16;5030983;28;20204;-77
2022/04/24 08:57:56;;;;;;;1.30;1.10;;;;;;;21.82;40.28;94151.19;5031612;28;20212;-77
2022/04/24 09:00:24;;;;;;;1.58;1.20;;;;;;;21.39;41.24;94150.03;5045665;28;20281;-78
2022/04/24 09:02:52;;;;;;;2.40;1.10;;;;;;;22.15;40.62;94143.31;5042806;28;20281;-78
2022/04/24 09:05:19;;;;;;;4.45;1.42;;;;;;;22.34;39.73;94153.72;5046121;28;20219;-77
2022/04/24 09:07:46;;;;;;;2.78;1.30;;;;;;;21.09;41.58;94148.69;5051014;28;20289;-79
2022/04/24 09:10:13;;;;;;;4.18;1.52;;;;;;;21.07;41.77;94137.28;5050982;28;20578;-78
2022/04/24 09:12:41;;;;;;;3.40;1.30;;;;;;;21.43;41.33;94139.78;5050969;28;20203;-80
2022/04/24 09:15:09;;;;;;;1.90;1.23;;;;;;;21.74;41.05;94137.84;5047935;28;20302;-74
2022/04/24 09:17:38;;;;;;;2.78;1.20;;;;;;;21.80;40.79;94125.97;5030643;28;20703;-77
2022/04/24 09:20:18;;;;;;;3.08;1.25;;;;;;;22.09;40.85;94131.19;5046555;28;20590;-79
2022/04/24 09:22:46;;;;;;;1.88;1.13;;;;;;;22.15;40.26;94129.53;5050629;28;20685;-78
2022/04/24 09:25:13;;;;;;;2.42;1.20;;;;;;;21.67;40.38;94122.19;5045547;28;20308;-77
2022/04/24 09:27:40;;;;;;;2.58;1.40;;;;;;;21.87;39.96;94120.38;5042306;28;20231;-77
2022/04/24 09:30:12;;;;;;;1.65;1.20;;;;;;;22.61;38.79;94115.88;5051644;28;20215;-78
2022/04/24 09:32:47;;;;;;;2.20;1.40;;;;;;;22.58;39.08;94113.16;5038868;28;20232;-79
2022/04/24 09:35:25;;;;;;;2.05;1.10;;;;;;;22.21;39.96;94105.81;5018115;28;20231;-73
2022/04/24 09:37:53;;;;;;;2.85;1.30;;;;;;;22.15;39.79;94107.44;5030557;28;20762;-77
2022/04/24 09:40:20;;;;;;;2.42;1.20;;;;;;;21.35;41.07;94116.22;5030241;28;20308;-78
2022/04/24 09:42:54;;;;;;;2.67;1.25;;;;;;;21.69;40.74;94114.28;5029681;28;20286;-76
2022/04/24 09:45:25;;;;;;;3.75;1.33;;;;;;;21.90;40.80;94111.28;5029722;28;20235;-78
2022/04/24 09:47:59;;;;;;;2.45;1.38;;;;;;;21.65;41.06;94108.03;5030200;28;20255;-78
2022/04/24 09:50:30;;;;;;;4.15;1.35;;;;;;;21.95;40.99;94105.31;5030519;28;20203;-76
2022/04/24 09:52:58;;;;;;;2.35;1.05;;;;;;;22.26;40.03;94097.06;5030250;28;20204;-75
2022/04/24 09:55:26;;;;;;;2.08;1.33;;;;;;;22.69;38.49;94086.94;5030139;28;20291;-77
2022/04/24 09:57:54;;;;;;;2.15;1.20;;;;;;;23.12;38.58;94080.78;5029675;28;20652;-76
2022/04/24 10:00:23;;;;;;;3.67;1.30;;;;;;;22.87;39.38;94081.19;5029277;28;20211;-83
2022/04/24 10:02:54;;;;;;;2.65;1.20;;;;;;;22.30;39.91;94084.00;5030750;28;20571;-76
2022/04/24 10:05:24;;;;;;;2.15;1.20;;;;;;;22.60;40.62;94072.91;5030493;28;20208;-80
2022/04/24 10:07:52;;;;;;;3.78;1.58;;;;;;;22.45;40.44;94070.78;5030488;28;20310;-79
2022/04/24 10:10:19;;;;;;;2.75;1.20;;;;;;;22.65;39.39;94064.16;5030222;28;20637;-79
2022/04/24 10:12:48;;;;;;;3.03;1.52;;;;;;;23.06;39.28;94054.84;5039392;28;20212;-78
2022/04/24 10:15:17;;;;;;;2.92;1.20;;;;;;;23.10;39.17;94055.53;5049583;28;20204;-76
2022/04/24 10:18:02;;;;;;;4.65;1.42;;;;;;;22.94;39.11;94052.69;5049603;28;20200;-81
2022/04/24 10:20:45;;;;;;;3.38;1.50;;;;;;;22.39;40.41;94053.13;5046453;28;20321;-81
2022/04/24 10:23:14;;;;;;;3.22;1.33;;;;;;;23.22;38.89;94046.66;5033137;28;20211;-78
2022/04/24 10:25:42;;;;;;;4.38;1.45;;;;;;;23.62;38.74;94041.19;5042784;28;20206;-72
2022/04/24 10:28:12;;;;;;;3.17;1.55;;;;;;;23.20;39.37;94043.53;5033649;28;20255;-78
2022/04/24 10:30:39;;;;;;;2.22;1.48;;;;;;;23.23;39.41;94041.91;5033812;28;20212;-80
2022/04/24 10:33:18;;;;;;;2.08;1.50;;;;;;;23.32;39.16;94045.66;5033809;28;20216;-78
2022/04/24 10:35:49;;;;;;;1.95;1.30;;;;;;;22.83;40.27;94041.78;5033256;28;20270;-79
2022/04/24 10:38:19;;;;;;;3.92;1.17;;;;;;;22.95;40.61;94043.19;5033065;28;20208;-74
2022/04/24 10:41:00;;;;;;;2.47;1.70;;;;;;;23.54;39.27;94040.53;5033103;28;20295;-77
2022/04/24 10:43:37;;;;;;;2.95;1.60;;;;;;;24.18;38.84;94027.38;5033174;28;20297;-76
2022/04/24 10:46:04;;;;;;;4.25;1.83;;;;;;;24.40;38.45;94026.50;5033310;28;20663;-79
2022/04/24 10:48:35;;;;;;;3.22;1.50;;;;;;;24.92;37.44;94014.53;5042929;28;20265;-77
2022/04/24 10:51:01;;;;;;;2.00;1.40;;;;;;;24.32;36.56;94010.47;5035978;28;20228;-77
2022/04/24 10:53:49;;;;;;;2.67;1.35;;;;;;;24.67;37.64;94009.63;5032980;28;20230;-78
2022/04/24 10:56:16;;;;;;;3.95;1.60;;;;;;;24.33;38.06;94007.25;5019908;28;20203;-81
2022/04/24 10:58:43;;;;;;;2.75;1.70;;;;;;;23.91;38.40;94020.03;5033642;28;20227;-78
2022/04/24 11:01:15;;;;;;;3.25;1.50;;;;;;;24.40;38.00;94017.41;5033416;28;20712;-78
2022/04/24 11:03:43;;;;;;;3.35;1.58;;;;;;;24.20;37.76;94011.09;5033040;28;20660;-79
2022/04/24 11:06:28;;;;;;;4.40;1.45;;;;;;;23.76;38.82;94013.25;5032974;28;20200;-78
2022/04/24 11:09:07;;;;;;;1.67;1.10;;;;;;;23.95;38.59;94017.97;5033350;28;20224;-80
2022/04/24 11:11:34;;;;;;;3.38;1.58;;;;;;;24.04;36.88;94017.41;5046695;28;20199;-78
2022/04/24 11:14:01;;;;;;;2.40;1.23;;;;;;;24.42;37.00;94001.91;5053129;28;20313;-79
2022/04/24 11:16:28;;;;;;;4.85;1.30;;;;;;;25.05;36.99;93984.94;5053042;28;20216;-77
2022/04/24 11:18:56;;;;;;;1.92;1.38;;;;;;;25.23;36.30;93978.94;5053243;28;20219;-78
2022/04/24 11:21:23;;;;;;;2.17;1.35;;;;;;;25.19;36.60;93978.22;5051570;28;20219;-79
2022/04/24 11:24:00;;;;;;;2.47;1.30;;;;;;;24.57;36.08;93982.97;5036011;28;20204;-82
2022/04/24 11:26:27;;;;;;;3.22;1.77;;;;;;;24.00;37.60;93977.94;5036102;28;20224;-78
2022/04/24 11:28:54;;;;;;;1.38;1.10;;;;;;;24.21;37.08;93982.22;5032931;28;20215;-78
2022/04/24 11:31:22;;;;;;;3.58;1.48;;;;;;;24.83;36.55;93963.72;5031524;28;20208;-80
2022/04/24 11:33:54;;;;;;;2.30;1.10;;;;;;;25.13;35.59;93966.13;5032807;28;20375;-79
2022/04/24 11:36:23;;;;;;;3.42;1.58;;;;;;;25.39;35.00;93959.47;5036433;28;20613;-77
2022/04/24 11:38:50;;;;;;;3.20;1.23;;;;;;;25.90;34.16;93964.38;5041957;28;20204;-82
2022/04/24 11:41:20;;;;;;;4.32;1.80;;;;;;;26.09;33.31;93957.84;5036694;28;20259;-78